^^
Saratoga-Weather Station Historical Data
Daily Summary for March 2, 2020 Units:  Both    English   Metric
Daily Weekly Monthly Yearly Custom
  High: Low: Average:
Temperature: 73.8 °F /  23.2 °C 54.3 °F /  12.4 °C 61.9 °F /  16.6 °C
Dew Point: 55.2 °F /  12.9 °C 50.4 °F /  10.2 °C 52.9 °F /  11.6 °C
Humidity: 92% 47% 74%
Wind Speed: 4.9mph /  7.9km/h - 0.8mph /  1.3km/h
Wind Gust: 7mph /  11.3km/h - -
Wind- - South
Pressure: 30.1 in /  1018.6 hPa 30 in /  1015.9 hPa -
Precipitation: 0 in /  0.0 mm    
Historical Graphs
 
 
Tabular Data for March 2, 2020
Time Temperature Dew Point Pressure Wind Wind Speed Wind Gust Humidity Rainfall Rate (Hourly) solar
00:02 57.4 °F /  14.1 °C 54.5 °F /  12.5 °C 30in /  1016.6hPa WSW 0.9mph /  1.4km/h 4mph /  6.4km/h 90% 0in /  0.0mm 0 W/m2
00:07 57.2 °F /  14 °C 54.3 °F /  12.4 °C 30in /  1016.6hPa WSW 0.9mph /  1.4km/h 2mph /  3.2km/h 90% 0in /  0.0mm 0 W/m2
00:12 57.2 °F /  14 °C 54.3 °F /  12.4 °C 30in /  1016.6hPa WSW 0.9mph /  1.4km/h 3mph /  4.8km/h 90% 0in /  0.0mm 0 W/m2
00:17 57.2 °F /  14 °C 54.3 °F /  12.4 °C 30in /  1016.6hPa West 0.9mph /  1.4km/h 2mph /  3.2km/h 90% 0in /  0.0mm 0 W/m2
00:22 57 °F /  13.9 °C 54.1 °F /  12.3 °C 30in /  1016.6hPa SW 0.9mph /  1.4km/h 2mph /  3.2km/h 90% 0in /  0.0mm 0 W/m2
00:27 57 °F /  13.9 °C 54.1 °F /  12.3 °C 30in /  1016.6hPa NNW 0.9mph /  1.4km/h 5mph /  8km/h 90% 0in /  0.0mm 0 W/m2
00:32 57.2 °F /  14 °C 54.3 °F /  12.4 °C 30in /  1016.6hPa WNW 2mph /  3.2km/h 3mph /  4.8km/h 90% 0in /  0.0mm 0 W/m2
00:37 57.2 °F /  14 °C 54 °F /  12.2 °C 30in /  1016.6hPa SSW 4mph /  6.4km/h 5mph /  8km/h 89% 0in /  0.0mm 0 W/m2
00:42 57.2 °F /  14 °C 54 °F /  12.2 °C 30in /  1016.6hPa WNW 0.9mph /  1.4km/h 2mph /  3.2km/h 89% 0in /  0.0mm 0 W/m2
00:47 57.4 °F /  14.1 °C 54.1 °F /  12.3 °C 30in /  1016.6hPa West 2mph /  3.2km/h 4mph /  6.4km/h 89% 0in /  0.0mm 0 W/m2
00:52 57.4 °F /  14.1 °C 54.1 °F /  12.3 °C 30in /  1016.6hPa West 0.9mph /  1.4km/h 2mph /  3.2km/h 89% 0in /  0.0mm 0 W/m2
00:57 57.2 °F /  14 °C 54 °F /  12.2 °C 30in /  1016.6hPa West 0.9mph /  1.4km/h 2mph /  3.2km/h 89% 0in /  0.0mm 0 W/m2
01:02 57 °F /  13.9 °C 53.8 °F /  12.1 °C 30in /  1016.6hPa West 0.9mph /  1.4km/h 2mph /  3.2km/h 89% 0in /  0.0mm 0 W/m2
01:07 57 °F /  13.9 °C 54.1 °F /  12.3 °C 30in /  1016.6hPa WNW 0.9mph /  1.4km/h 1mph /  1.6km/h 90% 0in /  0.0mm 0 W/m2
01:12 57 °F /  13.9 °C 53.8 °F /  12.1 °C 30in /  1016.6hPa Calm   1mph /  1.6km/h 89% 0in /  0.0mm 0 W/m2
01:17 57.4 °F /  14.1 °C 54.1 °F /  12.3 °C 30in /  1016.6hPa West 2mph /  3.2km/h 4mph /  6.4km/h 89% 0in /  0.0mm 0 W/m2
01:22 57.6 °F /  14.2 °C 53.8 °F /  12.1 °C 30in /  1016.6hPa West 0.9mph /  1.4km/h 3mph /  4.8km/h 87% 0in /  0.0mm 0 W/m2
01:27 57.7 °F /  14.3 °C 54 °F /  12.2 °C 30in /  1016.6hPa Calm   3mph /  4.8km/h 87% 0in /  0.0mm 0 W/m2
01:32 57.9 °F /  14.4 °C 54.1 °F /  12.3 °C 30in /  1016.6hPa SSE 0.9mph /  1.4km/h 1mph /  1.6km/h 87% 0in /  0.0mm 0 W/m2
01:37 57.7 °F /  14.3 °C 54 °F /  12.2 °C 30in /  1016.6hPa Calm   3mph /  4.8km/h 87% 0in /  0.0mm 0 W/m2
01:42 57.6 °F /  14.2 °C 54 °F /  12.2 °C 30in /  1016.6hPa WNW 0.9mph /  1.4km/h 4mph /  6.4km/h 88% 0in /  0.0mm 0 W/m2
01:47 57.4 °F /  14.1 °C 53.6 °F /  12 °C 30in /  1016.6hPa ENE 0.9mph /  1.4km/h 1mph /  1.6km/h 87% 0in /  0.0mm 0 W/m2
01:52 57.4 °F /  14.1 °C 53.6 °F /  12 °C 30in /  1016.6hPa Calm   1mph /  1.6km/h 87% 0in /  0.0mm 0 W/m2
01:57 57.4 °F /  14.1 °C 53.8 °F /  12.1 °C 30in /  1016.6hPa Calm   1mph /  1.6km/h 88% 0in /  0.0mm 0 W/m2
02:02 57 °F /  13.9 °C 53.4 °F /  11.9 °C 30in /  1016.6hPa Calm   2mph /  3.2km/h 88% 0in /  0.0mm 0 W/m2
02:07 56.8 °F /  13.8 °C 53.6 °F /  12 °C 30in /  1016.3hPa Calm   1mph /  1.6km/h 89% 0in /  0.0mm 0 W/m2
02:12 56.7 °F /  13.7 °C 53.4 °F /  11.9 °C 30in /  1016.3hPa Calm   2mph /  3.2km/h 89% 0in /  0.0mm 0 W/m2
02:17 56.7 °F /  13.7 °C 53.4 °F /  11.9 °C 30in /  1016.6hPa SSE 0.9mph /  1.4km/h 3mph /  4.8km/h 89% 0in /  0.0mm 0 W/m2
02:22 56.7 °F /  13.7 °C 53.4 °F /  11.9 °C 30in /  1016.3hPa ESE 0.9mph /  1.4km/h 2mph /  3.2km/h 89% 0in /  0.0mm 0 W/m2
02:27 56.7 °F /  13.7 °C 53.4 °F /  11.9 °C 30in /  1016.3hPa SSE 0.9mph /  1.4km/h 2mph /  3.2km/h 89% 0in /  0.0mm 0 W/m2
02:32 56.5 °F /  13.6 °C 53.2 °F /  11.8 °C 30in /  1016.3hPa SE 0.9mph /  1.4km/h 1mph /  1.6km/h 89% 0in /  0.0mm 0 W/m2
02:37 56.5 °F /  13.6 °C 52.9 °F /  11.6 °C 30in /  1016.3hPa Calm   2mph /  3.2km/h 88% 0in /  0.0mm 0 W/m2
02:42 56.5 °F /  13.6 °C 53.2 °F /  11.8 °C 30in /  1016.3hPa Calm   1mph /  1.6km/h 89% 0in /  0.0mm 0 W/m2
02:48 56.3 °F /  13.5 °C 53.1 °F /  11.7 °C 30in /  1016.3hPa Calm   2mph /  3.2km/h 89% 0in /  0.0mm 0 W/m2
02:53 56.1 °F /  13.4 °C 52.9 °F /  11.6 °C 30in /  1016.3hPa SE 0.9mph /  1.4km/h 3mph /  4.8km/h 89% 0in /  0.0mm 0 W/m2
02:58 55.9 °F /  13.3 °C 52.7 °F /  11.5 °C 30in /  1016.3hPa SE 0.9mph /  1.4km/h 2mph /  3.2km/h 89% 0in /  0.0mm 0 W/m2
03:03 55.8 °F /  13.2 °C 52.5 °F /  11.4 °C 30in /  1016.3hPa Calm   2mph /  3.2km/h 89% 0in /  0.0mm 0 W/m2
03:08 55.6 °F /  13.1 °C 52.7 °F /  11.5 °C 30in /  1016.3hPa Calm   2mph /  3.2km/h 90% 0in /  0.0mm 0 W/m2
03:13 55.6 °F /  13.1 °C 52.7 °F /  11.5 °C 30in /  1016.3hPa WSW 2mph /  3.2km/h 2mph /  3.2km/h 90% 0in /  0.0mm 0 W/m2
03:18 55.4 °F /  13 °C 52.5 °F /  11.4 °C 30in /  1016.3hPa Calm     90% 0in /  0.0mm 0 W/m2
03:23 55.2 °F /  12.9 °C 52.3 °F /  11.3 °C 30in /  1016.3hPa Calm     90% 0in /  0.0mm 0 W/m2
03:28 55 °F /  12.8 °C 52.5 °F /  11.4 °C 30in /  1016.3hPa Calm     91% 0in /  0.0mm 0 W/m2
03:33 54.9 °F /  12.7 °C 52.3 °F /  11.3 °C 30in /  1016.3hPa West 0.9mph /  1.4km/h 3mph /  4.8km/h 91% 0in /  0.0mm 0 W/m2
03:38 54.9 °F /  12.7 °C 52.3 °F /  11.3 °C 30in /  1016.3hPa Calm   1mph /  1.6km/h 91% 0in /  0.0mm 0 W/m2
03:43 55 °F /  12.8 °C 52.7 °F /  11.5 °C 30in /  1016.3hPa Calm   3mph /  4.8km/h 92% 0in /  0.0mm 0 W/m2
03:48 55 °F /  12.8 °C 52.5 °F /  11.4 °C 30in /  1016.3hPa NNW 2mph /  3.2km/h 3mph /  4.8km/h 91% 0in /  0.0mm 0 W/m2
03:53 55 °F /  12.8 °C 52.5 °F /  11.4 °C 30in /  1016.3hPa NNW 0.9mph /  1.4km/h 4mph /  6.4km/h 91% 0in /  0.0mm 0 W/m2
03:58 55.4 °F /  13 °C 52.5 °F /  11.4 °C 30in /  1016.3hPa Calm   2mph /  3.2km/h 90% 0in /  0.0mm 0 W/m2
04:03 55.6 °F /  13.1 °C 52.7 °F /  11.5 °C 30in /  1016.3hPa SSE 0.9mph /  1.4km/h 1mph /  1.6km/h 90% 0in /  0.0mm 0 W/m2
04:08 55.6 °F /  13.1 °C 52.7 °F /  11.5 °C 30in /  1016.3hPa NE 0.9mph /  1.4km/h 3mph /  4.8km/h 90% 0in /  0.0mm 0 W/m2
04:13 55.8 °F /  13.2 °C 52.5 °F /  11.4 °C 30in /  1016.3hPa Calm   1mph /  1.6km/h 89% 0in /  0.0mm 0 W/m2
04:18 55.9 °F /  13.3 °C 52.5 °F /  11.4 °C 30in /  1016.3hPa WNW 2mph /  3.2km/h 2mph /  3.2km/h 88% 0in /  0.0mm 0 W/m2
04:23 56.1 °F /  13.4 °C 52.7 °F /  11.5 °C 30in /  1016.3hPa East 2.9mph /  4.7km/h 6mph /  9.7km/h 88% 0in /  0.0mm 0 W/m2
04:28 56.1 °F /  13.4 °C 52.3 °F /  11.3 °C 30in /  1016.3hPa NW 0.9mph /  1.4km/h 2mph /  3.2km/h 87% 0in /  0.0mm 0 W/m2
04:33 56.1 °F /  13.4 °C 52.3 °F /  11.3 °C 30in /  1016.3hPa ENE 0.9mph /  1.4km/h 1mph /  1.6km/h 87% 0in /  0.0mm 0 W/m2
04:38 56.1 °F /  13.4 °C 52.3 °F /  11.3 °C 30in /  1016.3hPa NE 0.9mph /  1.4km/h 2mph /  3.2km/h 87% 0in /  0.0mm 0 W/m2
04:43 56.3 °F /  13.5 °C 52.5 °F /  11.4 °C 30in /  1015.9hPa Calm   1mph /  1.6km/h 87% 0in /  0.0mm 0 W/m2
04:48 56.1 °F /  13.4 °C 52.7 °F /  11.5 °C 30in /  1016.3hPa Calm   1mph /  1.6km/h 88% 0in /  0.0mm 0 W/m2
04:53 55.9 °F /  13.3 °C 52.7 °F /  11.5 °C 30in /  1016.3hPa Calm   1mph /  1.6km/h 89% 0in /  0.0mm 0 W/m2
04:58 55.8 °F /  13.2 °C 52.3 °F /  11.3 °C 30in /  1016.3hPa Calm     88% 0in /  0.0mm 0 W/m2
05:03 55.8 °F /  13.2 °C 52.5 °F /  11.4 °C 30in /  1015.9hPa Calm     89% 0in /  0.0mm 0 W/m2
05:08 55.8 °F /  13.2 °C 52.5 °F /  11.4 °C 30in /  1015.9hPa Calm     89% 0in /  0.0mm 0 W/m2
05:13 55.6 °F /  13.1 °C 52.7 °F /  11.5 °C 30in /  1015.9hPa Calm   2mph /  3.2km/h 90% 0in /  0.0mm 0 W/m2
05:18 55.4 °F /  13 °C 52.2 °F /  11.2 °C 30in /  1015.9hPa East 2.9mph /  4.7km/h 3mph /  4.8km/h 89% 0in /  0.0mm 0 W/m2
05:23 55.6 °F /  13.1 °C 52.3 °F /  11.3 °C 30in /  1015.9hPa East 0.9mph /  1.4km/h 1mph /  1.6km/h 89% 0in /  0.0mm 0 W/m2
05:28 55.8 °F /  13.2 °C 52.3 °F /  11.3 °C 30in /  1015.9hPa East 0.9mph /  1.4km/h 1mph /  1.6km/h 88% 0in /  0.0mm 0 W/m2
05:33 55.8 °F /  13.2 °C 52.3 °F /  11.3 °C 30in /  1015.9hPa Calm     88% 0in /  0.0mm 0 W/m2
05:38 55.6 °F /  13.1 °C 52.2 °F /  11.2 °C 30in /  1015.9hPa Calm   1mph /  1.6km/h 88% 0in /  0.0mm 0 W/m2
05:43 55.2 °F /  12.9 °C 51.8 °F /  11 °C 30in /  1015.9hPa ESE 0.9mph /  1.4km/h 1mph /  1.6km/h 88% 0in /  0.0mm 0 W/m2
05:48 55 °F /  12.8 °C 51.6 °F /  10.9 °C 30in /  1015.9hPa Calm   1mph /  1.6km/h 88% 0in /  0.0mm 0 W/m2
05:53 55 °F /  12.8 °C 51.8 °F /  11 °C 30in /  1015.9hPa ENE 0.9mph /  1.4km/h 3mph /  4.8km/h 89% 0in /  0.0mm 0 W/m2
05:59 55 °F /  12.8 °C 51.6 °F /  10.9 °C 30in /  1015.9hPa Calm     88% 0in /  0.0mm 0 W/m2
06:04 55 °F /  12.8 °C 51.6 °F /  10.9 °C 30in /  1015.9hPa WNW 0.9mph /  1.4km/h 2mph /  3.2km/h 88% 0in /  0.0mm 0 W/m2
06:09 54.9 °F /  12.7 °C 51.4 °F /  10.8 °C 30in /  1015.9hPa Calm   1mph /  1.6km/h 88% 0in /  0.0mm 0 W/m2
06:14 54.9 °F /  12.7 °C 51.6 °F /  10.9 °C 30in /  1016.3hPa SW 0.9mph /  1.4km/h 2mph /  3.2km/h 89% 0in /  0.0mm 0 W/m2
06:19 54.7 °F /  12.6 °C 51.4 °F /  10.8 °C 30in /  1016.3hPa Calm   1mph /  1.6km/h 89% 0in /  0.0mm 0 W/m2
06:24 54.5 °F /  12.5 °C 51.6 °F /  10.9 °C 30in /  1016.3hPa Calm   1mph /  1.6km/h 90% 0in /  0.0mm 0 W/m2
06:29 54.3 °F /  12.4 °C 51.4 °F /  10.8 °C 30in /  1016.3hPa SW 0.9mph /  1.4km/h 1mph /  1.6km/h 90% 0in /  0.0mm 0 W/m2
06:34 54.3 °F /  12.4 °C 51.4 °F /  10.8 °C 30in /  1016.3hPa Calm   1mph /  1.6km/h 90% 0in /  0.0mm 0 W/m2
06:39 54.3 °F /  12.4 °C 51.4 °F /  10.8 °C 30in /  1016.3hPa Calm     90% 0in /  0.0mm 0 W/m2
06:44 54.3 °F /  12.4 °C 51.8 °F /  11 °C 30in /  1016.3hPa Calm   1mph /  1.6km/h 91% 0in /  0.0mm 0 W/m2
06:49 54.3 °F /  12.4 °C 51.8 °F /  11 °C 30in /  1016.3hPa Calm   1mph /  1.6km/h 91% 0in /  0.0mm 0 W/m2
06:54 54.5 °F /  12.5 °C 52 °F /  11.1 °C 30in /  1016.3hPa Calm   1mph /  1.6km/h 91% 0in /  0.0mm 0 W/m2
06:59 54.5 °F /  12.5 °C 52 °F /  11.1 °C 30in /  1016.3hPa Calm   2mph /  3.2km/h 91% 0in /  0.0mm 0 W/m2
07:04 54.7 °F /  12.6 °C 52.2 °F /  11.2 °C 30in /  1016.3hPa NW 2mph /  3.2km/h 2mph /  3.2km/h 91% 0in /  0.0mm 0 W/m2
07:09 54.9 °F /  12.7 °C 52 °F /  11.1 °C 30in /  1016.3hPa Calm     90% 0in /  0.0mm 5 W/m2
07:14 55 °F /  12.8 °C 52.2 °F /  11.2 °C 30in /  1016.3hPa Calm     90% 0in /  0.0mm 5 W/m2
07:19 55.2 °F /  12.9 °C 52 °F /  11.1 °C 30in /  1016.3hPa Calm   1mph /  1.6km/h 89% 0in /  0.0mm 7 W/m2
07:24 55.4 °F /  13 °C 52.2 °F /  11.2 °C 30in /  1016.6hPa ENE 0.9mph /  1.4km/h 1mph /  1.6km/h 89% 0in /  0.0mm 11 W/m2
07:29 55.4 °F /  13 °C 52.2 °F /  11.2 °C 30in /  1016.6hPa Calm   1mph /  1.6km/h 89% 0in /  0.0mm 14 W/m2
07:34 55.4 °F /  13 °C 52.2 °F /  11.2 °C 30in /  1016.6hPa Calm   1mph /  1.6km/h 89% 0in /  0.0mm 19 W/m2
07:39 55.2 °F /  12.9 °C 52 °F /  11.1 °C 30in /  1016.6hPa Calm     89% 0in /  0.0mm 26 W/m2
07:44 55.4 °F /  13 °C 52.2 °F /  11.2 °C 30in /  1016.6hPa Calm   1mph /  1.6km/h 89% 0in /  0.0mm 32 W/m2
07:49 55.6 °F /  13.1 °C 52.7 °F /  11.5 °C 30in /  1016.6hPa Calm     90% 0in /  0.0mm 37 W/m2
07:54 55.6 °F /  13.1 °C 52.7 °F /  11.5 °C 30in /  1016.6hPa Calm     90% 0in /  0.0mm 47 W/m2
07:59 55.8 °F /  13.2 °C 52.9 °F /  11.6 °C 30in /  1016.6hPa Calm     90% 0in /  0.0mm 53 W/m2
08:05 55.8 °F /  13.2 °C 52.9 °F /  11.6 °C 30in /  1016.6hPa Calm     90% 0in /  0.0mm 63 W/m2
08:10 55.9 °F /  13.3 °C 52.7 °F /  11.5 °C 30in /  1016.6hPa ENE 0.9mph /  1.4km/h 1mph /  1.6km/h 89% 0in /  0.0mm 65 W/m2
08:15 56.1 °F /  13.4 °C 52.7 °F /  11.5 °C 30in /  1016.6hPa ESE 2mph /  3.2km/h 2mph /  3.2km/h 88% 0in /  0.0mm 69 W/m2
08:20 56.3 °F /  13.5 °C 52.5 °F /  11.4 °C 30in /  1016.6hPa Calm   1mph /  1.6km/h 87% 0in /  0.0mm 67 W/m2
08:25 56.5 °F /  13.6 °C 52.7 °F /  11.5 °C 30in /  1016.6hPa Calm   1mph /  1.6km/h 87% 0in /  0.0mm 72 W/m2
08:30 56.7 °F /  13.7 °C 52.9 °F /  11.6 °C 30in /  1016.6hPa East 0.9mph /  1.4km/h 1mph /  1.6km/h 87% 0in /  0.0mm 77 W/m2
08:35 56.8 °F /  13.8 °C 53.1 °F /  11.7 °C 30in /  1016.6hPa Calm     87% 0in /  0.0mm 190 W/m2
08:40 56.8 °F /  13.8 °C 52.7 °F /  11.5 °C 30in /  1016.6hPa Calm     86% 0in /  0.0mm 56 W/m2
08:45 57 °F /  13.9 °C 52.9 °F /  11.6 °C 30in /  1016.6hPa Calm   1mph /  1.6km/h 86% 0in /  0.0mm 74 W/m2
08:50 57 °F /  13.9 °C 52.5 °F /  11.4 °C 30in /  1016.9hPa Calm     85% 0in /  0.0mm 88 W/m2
08:55 57.2 °F /  14 °C 52.7 °F /  11.5 °C 30in /  1016.9hPa NE 2mph /  3.2km/h 2mph /  3.2km/h 85% 0in /  0.0mm 179 W/m2
09:00 57.4 °F /  14.1 °C 52.9 °F /  11.6 °C 30in /  1016.9hPa Calm   2mph /  3.2km/h 85% 0in /  0.0mm 134 W/m2
09:05 57.6 °F /  14.2 °C 53.1 °F /  11.7 °C 30in /  1016.9hPa Calm   1mph /  1.6km/h 85% 0in /  0.0mm 311 W/m2
09:10 57.7 °F /  14.3 °C 53.6 °F /  12 °C 30in /  1016.9hPa East 2mph /  3.2km/h 2mph /  3.2km/h 86% 0in /  0.0mm 135 W/m2
09:15 58.3 °F /  14.6 °C 53.8 °F /  12.1 °C 30in /  1016.9hPa NW 0.9mph /  1.4km/h 4mph /  6.4km/h 85% 0in /  0.0mm 135 W/m2
09:20 58.6 °F /  14.8 °C 54.1 °F /  12.3 °C 30in /  1016.9hPa WNW 0.9mph /  1.4km/h 1mph /  1.6km/h 85% 0in /  0.0mm 366 W/m2
09:25 59 °F /  15 °C 54.1 °F /  12.3 °C 30in /  1016.9hPa Calm   4mph /  6.4km/h 84% 0in /  0.0mm 281 W/m2
09:30 59.4 °F /  15.2 °C 54.1 °F /  12.3 °C 30in /  1016.9hPa NW 0.9mph /  1.4km/h 2mph /  3.2km/h 83% 0in /  0.0mm 127 W/m2
09:35 59.9 °F /  15.5 °C 54.7 °F /  12.6 °C 30in /  1016.9hPa West 0.9mph /  1.4km/h 3mph /  4.8km/h 83% 0in /  0.0mm 118 W/m2
09:40 60.4 °F /  15.8 °C 55.2 °F /  12.9 °C 30in /  1016.9hPa Calm   4mph /  6.4km/h 83% 0in /  0.0mm 109 W/m2
09:45 60.8 °F /  16 °C 55.2 °F /  12.9 °C 30in /  1016.9hPa East 2mph /  3.2km/h 3mph /  4.8km/h 82% 0in /  0.0mm 98 W/m2
09:50 61.2 °F /  16.2 °C 54.9 °F /  12.7 °C 30in /  1016.9hPa Calm   3mph /  4.8km/h 80% 0in /  0.0mm 107 W/m2
09:55 61.2 °F /  16.2 °C 54.7 °F /  12.6 °C 30in /  1016.9hPa Calm   1mph /  1.6km/h 79% 0in /  0.0mm 151 W/m2
10:00 61.7 °F /  16.5 °C 55 °F /  12.8 °C 30in /  1016.9hPa Calm   2mph /  3.2km/h 79% 0in /  0.0mm 192 W/m2
10:05 62.2 °F /  16.8 °C 54.9 °F /  12.7 °C 30in /  1016.9hPa Calm   4mph /  6.4km/h 77% 0in /  0.0mm 193 W/m2
10:10 62.6 °F /  17 °C 54.5 °F /  12.5 °C 30in /  1016.9hPa NNE 2mph /  3.2km/h 2mph /  3.2km/h 75% 0in /  0.0mm 239 W/m2
10:15 63 °F /  17.2 °C 55.2 °F /  12.9 °C 30in /  1016.9hPa Calm   2mph /  3.2km/h 76% 0in /  0.0mm 276 W/m2
10:20 63 °F /  17.2 °C 54.9 °F /  12.7 °C 30in /  1017.3hPa East 4mph /  6.4km/h 4mph /  6.4km/h 75% 0in /  0.0mm 272 W/m2
10:25 63 °F /  17.2 °C 55.2 °F /  12.9 °C 30in /  1017.3hPa Calm   3mph /  4.8km/h 76% 0in /  0.0mm 237 W/m2
10:30 62.8 °F /  17.1 °C 55 °F /  12.8 °C 30in /  1017.3hPa Calm   6mph /  9.7km/h 76% 0in /  0.0mm 229 W/m2
10:35 62.6 °F /  17 °C 55.2 °F /  12.9 °C 30in /  1017.3hPa NE 0.9mph /  1.4km/h 2mph /  3.2km/h 77% 0in /  0.0mm 199 W/m2
10:40 62.4 °F /  16.9 °C 55 °F /  12.8 °C 30.1in /  1017.6hPa NNW 2.9mph /  4.7km/h 6mph /  9.7km/h 77% 0in /  0.0mm 206 W/m2
10:45 62.2 °F /  16.8 °C 54.9 °F /  12.7 °C 30.1in /  1017.6hPa ENE 2mph /  3.2km/h 4mph /  6.4km/h 77% 0in /  0.0mm 211 W/m2
10:50 62.1 °F /  16.7 °C 54.7 °F /  12.6 °C 30.1in /  1017.6hPa NW 0.9mph /  1.4km/h 6mph /  9.7km/h 77% 0in /  0.0mm 227 W/m2
10:55 61.9 °F /  16.6 °C 54.9 °F /  12.7 °C 30.1in /  1017.6hPa North 0.9mph /  1.4km/h 3mph /  4.8km/h 78% 0in /  0.0mm 257 W/m2
11:00 62.1 °F /  16.7 °C 55 °F /  12.8 °C 30.1in /  1017.6hPa NW 2.9mph /  4.7km/h 5mph /  8km/h 78% 0in /  0.0mm 248 W/m2
11:05 62.1 °F /  16.7 °C 54.7 °F /  12.6 °C 30.1in /  1017.6hPa East 0.9mph /  1.4km/h 3mph /  4.8km/h 77% 0in /  0.0mm 255 W/m2
11:10 62.2 °F /  16.8 °C 54.9 °F /  12.7 °C 30.1in /  1017.6hPa North 2mph /  3.2km/h 3mph /  4.8km/h 77% 0in /  0.0mm 274 W/m2
11:15 62.4 °F /  16.9 °C 55 °F /  12.8 °C 30.1in /  1017.6hPa ENE 0.9mph /  1.4km/h 3mph /  4.8km/h 77% 0in /  0.0mm 271 W/m2
11:20 62.8 °F /  17.1 °C 55 °F /  12.8 °C 30.1in /  1017.6hPa WSW 2.9mph /  4.7km/h 4mph /  6.4km/h 76% 0in /  0.0mm 267 W/m2
11:25 62.8 °F /  17.1 °C 54 °F /  12.2 °C 30.1in /  1017.6hPa North 4.9mph /  7.9km/h 5mph /  8km/h 73% 0in /  0.0mm 267 W/m2
11:30 62.8 °F /  17.1 °C 53.6 °F /  12 °C 30.1in /  1017.6hPa NNW 2mph /  3.2km/h 2mph /  3.2km/h 72% 0in /  0.0mm 274 W/m2
11:35 63.1 °F /  17.3 °C 54.7 °F /  12.6 °C 30.1in /  1017.6hPa East 4mph /  6.4km/h 4mph /  6.4km/h 74% 0in /  0.0mm 299 W/m2
11:40 63.5 °F /  17.5 °C 55 °F /  12.8 °C 30.1in /  1017.6hPa NE 0.9mph /  1.4km/h 2mph /  3.2km/h 74% 0in /  0.0mm 316 W/m2
11:45 63.9 °F /  17.7 °C 55 °F /  12.8 °C 30.1in /  1017.6hPa NE 0.9mph /  1.4km/h 3mph /  4.8km/h 73% 0in /  0.0mm 403 W/m2
11:50 64.2 °F /  17.9 °C 55 °F /  12.8 °C 30.1in /  1017.6hPa Calm   6mph /  9.7km/h 72% 0in /  0.0mm 294 W/m2
11:55 64.4 °F /  18 °C 54.3 °F /  12.4 °C 30.1in /  1017.6hPa Calm   2mph /  3.2km/h 70% 0in /  0.0mm 315 W/m2
12:00 64.4 °F /  18 °C 54.3 °F /  12.4 °C 30.1in /  1017.6hPa Calm   2mph /  3.2km/h 70% 0in /  0.0mm 271 W/m2
12:05 64.6 °F /  18.1 °C 54.1 °F /  12.3 °C 30.1in /  1017.6hPa East 2mph /  3.2km/h 3mph /  4.8km/h 69% 0in /  0.0mm 316 W/m2
12:10 64.8 °F /  18.2 °C 54.7 °F /  12.6 °C 30.1in /  1017.6hPa NNW 0.9mph /  1.4km/h 2mph /  3.2km/h 70% 0in /  0.0mm 302 W/m2
12:15 64.9 °F /  18.3 °C 53.2 °F /  11.8 °C 30.1in /  1017.6hPa East 2.9mph /  4.7km/h 3mph /  4.8km/h 66% 0in /  0.0mm 359 W/m2
12:20 64.9 °F /  18.3 °C 52.5 °F /  11.4 °C 30.1in /  1017.6hPa ENE 0.9mph /  1.4km/h 3mph /  4.8km/h 64% 0in /  0.0mm 301 W/m2
12:25 65.1 °F /  18.4 °C 53.4 °F /  11.9 °C 30.1in /  1017.6hPa East 0.9mph /  1.4km/h 2mph /  3.2km/h 66% 0in /  0.0mm 299 W/m2
12:30 65.5 °F /  18.6 °C 53.1 °F /  11.7 °C 30.1in /  1017.6hPa East 0.9mph /  1.4km/h 3mph /  4.8km/h 64% 0in /  0.0mm 341 W/m2
12:35 65.7 °F /  18.7 °C 52.7 °F /  11.5 °C 30.1in /  1017.6hPa SSE 2mph /  3.2km/h 3mph /  4.8km/h 63% 0in /  0.0mm 334 W/m2
12:40 65.7 °F /  18.7 °C 52.3 °F /  11.3 °C 30.1in /  1017.6hPa North 0.9mph /  1.4km/h 4mph /  6.4km/h 62% 0in /  0.0mm 355 W/m2
12:45 65.7 °F /  18.7 °C 53.2 °F /  11.8 °C 30.1in /  1017.6hPa Calm   6mph /  9.7km/h 64% 0in /  0.0mm 381 W/m2
12:50 66 °F /  18.9 °C 53.4 °F /  11.9 °C 30.1in /  1017.6hPa East 0.9mph /  1.4km/h 2mph /  3.2km/h 64% 0in /  0.0mm 311 W/m2
12:55 66.6 °F /  19.2 °C 54 °F /  12.2 °C 30.1in /  1017.6hPa East 2.9mph /  4.7km/h 3mph /  4.8km/h 64% 0in /  0.0mm 932 W/m2
13:00 66.9 °F /  19.4 °C 53.4 °F /  11.9 °C 30.1in /  1017.6hPa ESE 2mph /  3.2km/h 5mph /  8km/h 62% 0in /  0.0mm 932 W/m2
13:05 67.6 °F /  19.8 °C 53.8 °F /  12.1 °C 30in /  1017.3hPa East 0.9mph /  1.4km/h 2mph /  3.2km/h 61% 0in /  0.0mm 835 W/m2
13:11 68.2 °F /  20.1 °C 53.8 °F /  12.1 °C 30in /  1017.3hPa NE 2mph /  3.2km/h 5mph /  8km/h 60% 0in /  0.0mm 814 W/m2
13:16 68.5 °F /  20.3 °C 54.1 °F /  12.3 °C 30in /  1017.3hPa NE 2.9mph /  4.7km/h 4mph /  6.4km/h 60% 0in /  0.0mm 923 W/m2
13:21 68.4 °F /  20.2 °C 53.4 °F /  11.9 °C 30in /  1017.3hPa South 2mph /  3.2km/h 3mph /  4.8km/h 59% 0in /  0.0mm 373 W/m2
13:26 68.5 °F /  20.3 °C 54.1 °F /  12.3 °C 30in /  1017.3hPa ENE 0.9mph /  1.4km/h 7mph /  11.3km/h 60% 0in /  0.0mm 993 W/m2
13:31 68.7 °F /  20.4 °C 54.7 °F /  12.6 °C 30in /  1017.3hPa NNW 0.9mph /  1.4km/h 3mph /  4.8km/h 61% 0in /  0.0mm 490 W/m2
13:36 68.5 °F /  20.3 °C 53.6 °F /  12 °C 30in /  1017.3hPa NNW 2mph /  3.2km/h 6mph /  9.7km/h 59% 0in /  0.0mm 279 W/m2
13:41 68.4 °F /  20.2 °C 54.3 °F /  12.4 °C 30in /  1017.3hPa Calm   2mph /  3.2km/h 61% 0in /  0.0mm 246 W/m2
13:46 68 °F /  20 °C 52.7 °F /  11.5 °C 30in /  1017.3hPa NNW 0.9mph /  1.4km/h 2mph /  3.2km/h 58% 0in /  0.0mm 209 W/m2
13:51 67.8 °F /  19.9 °C 52.9 °F /  11.6 °C 30in /  1017.3hPa ENE 0.9mph /  1.4km/h 2mph /  3.2km/h 59% 0in /  0.0mm 223 W/m2
13:56 67.6 °F /  19.8 °C 52.9 °F /  11.6 °C 30in /  1017.3hPa WSW 2.9mph /  4.7km/h 4mph /  6.4km/h 59% 0in /  0.0mm 250 W/m2
14:01 67.6 °F /  19.8 °C 53.2 °F /  11.8 °C 30in /  1017.3hPa NNW 0.9mph /  1.4km/h 4mph /  6.4km/h 60% 0in /  0.0mm 287 W/m2
14:06 67.6 °F /  19.8 °C 53.2 °F /  11.8 °C 30in /  1017.3hPa NW 2.9mph /  4.7km/h 3mph /  4.8km/h 60% 0in /  0.0mm 403 W/m2
14:11 67.6 °F /  19.8 °C 52.9 °F /  11.6 °C 30in /  1017.3hPa West 0.9mph /  1.4km/h 2mph /  3.2km/h 59% 0in /  0.0mm 376 W/m2
14:16 67.8 °F /  19.9 °C 53.4 °F /  11.9 °C 30in /  1017.3hPa East 0.9mph /  1.4km/h 5mph /  8km/h 60% 0in /  0.0mm 359 W/m2
14:21 68.2 °F /  20.1 °C 53.8 °F /  12.1 °C 30in /  1016.9hPa Calm   2mph /  3.2km/h 60% 0in /  0.0mm 427 W/m2
14:26 68.5 °F /  20.3 °C 53.6 °F /  12 °C 30in /  1017.3hPa NE 2.9mph /  4.7km/h 6mph /  9.7km/h 59% 0in /  0.0mm 833 W/m2
14:31 69.1 °F /  20.6 °C 53.6 °F /  12 °C 30in /  1016.9hPa ESE 2mph /  3.2km/h 3mph /  4.8km/h 58% 0in /  0.0mm 719 W/m2
14:36 69.3 °F /  20.7 °C 53.8 °F /  12.1 °C 30in /  1016.9hPa NNW 0.9mph /  1.4km/h 3mph /  4.8km/h 58% 0in /  0.0mm 918 W/m2
14:41 69.6 °F /  20.9 °C 53.2 °F /  11.8 °C 30in /  1016.9hPa SW 0.9mph /  1.4km/h 1mph /  1.6km/h 56% 0in /  0.0mm 870 W/m2
14:46 69.8 °F /  21 °C 54.3 °F /  12.4 °C 30in /  1016.9hPa North 2.9mph /  4.7km/h 3mph /  4.8km/h 58% 0in /  0.0mm 879 W/m2
14:51 70.3 °F /  21.3 °C 54 °F /  12.2 °C 30in /  1016.9hPa NW 4mph /  6.4km/h 4mph /  6.4km/h 56% 0in /  0.0mm 789 W/m2
14:56 70.3 °F /  21.3 °C 54 °F /  12.2 °C 30in /  1016.9hPa ESE 2.9mph /  4.7km/h 6mph /  9.7km/h 56% 0in /  0.0mm 186 W/m2
15:01 70 °F /  21.1 °C 53.6 °F /  12 °C 30in /  1016.9hPa North 0.9mph /  1.4km/h 2mph /  3.2km/h 56% 0in /  0.0mm 185 W/m2
15:06 69.6 °F /  20.9 °C 53.2 °F /  11.8 °C 30in /  1016.9hPa NE 2mph /  3.2km/h 6mph /  9.7km/h 56% 0in /  0.0mm 221 W/m2
15:11 69.3 °F /  20.7 °C 52.9 °F /  11.6 °C 30in /  1016.9hPa North 2mph /  3.2km/h 3mph /  4.8km/h 56% 0in /  0.0mm 206 W/m2
15:16 69.3 °F /  20.7 °C 53.8 °F /  12.1 °C 30in /  1016.9hPa SE 2.9mph /  4.7km/h 6mph /  9.7km/h 58% 0in /  0.0mm 763 W/m2
15:21 69.4 °F /  20.8 °C 53.1 °F /  11.7 °C 30in /  1016.9hPa SE 2.9mph /  4.7km/h 4mph /  6.4km/h 56% 0in /  0.0mm 292 W/m2
15:26 69.8 °F /  21 °C 52.9 °F /  11.6 °C 30in /  1016.9hPa NW 2mph /  3.2km/h 3mph /  4.8km/h 55% 0in /  0.0mm 257 W/m2
15:31 69.6 °F /  20.9 °C 52.7 °F /  11.5 °C 30in /  1016.9hPa ENE 2mph /  3.2km/h 2mph /  3.2km/h 55% 0in /  0.0mm 390 W/m2
15:36 69.6 °F /  20.9 °C 52.2 °F /  11.2 °C 30in /  1016.9hPa NW 2mph /  3.2km/h 4mph /  6.4km/h 54% 0in /  0.0mm 304 W/m2
15:41 69.4 °F /  20.8 °C 52.5 °F /  11.4 °C 30in /  1016.9hPa ENE 0.9mph /  1.4km/h 3mph /  4.8km/h 55% 0in /  0.0mm 330 W/m2
15:46 69.8 °F /  21 °C 52 °F /  11.1 °C 30in /  1016.9hPa Calm   4mph /  6.4km/h 53% 0in /  0.0mm 415 W/m2
15:51 70.3 °F /  21.3 °C 52.3 °F /  11.3 °C 30in /  1016.9hPa South 2mph /  3.2km/h 2mph /  3.2km/h 53% 0in /  0.0mm 745 W/m2
15:56 71.1 °F /  21.7 °C 53.6 °F /  12 °C 30in /  1016.9hPa Calm   3mph /  4.8km/h 54% 0in /  0.0mm 715 W/m2
16:02 71.4 °F /  21.9 °C 54 °F /  12.2 °C 30in /  1016.6hPa ENE 2mph /  3.2km/h 3mph /  4.8km/h 54% 0in /  0.0mm 740 W/m2
16:07 71.4 °F /  21.9 °C 52.3 °F /  11.3 °C 30in /  1016.6hPa SE 0.9mph /  1.4km/h 2mph /  3.2km/h 51% 0in /  0.0mm 647 W/m2
16:12 71.2 °F /  21.8 °C 53.2 °F /  11.8 °C 30in /  1016.6hPa WNW 2mph /  3.2km/h 4mph /  6.4km/h 53% 0in /  0.0mm 580 W/m2
16:17 71.2 °F /  21.8 °C 53.2 °F /  11.8 °C 30in /  1016.6hPa SSE 2mph /  3.2km/h 3mph /  4.8km/h 53% 0in /  0.0mm 209 W/m2
16:22 71.4 °F /  21.9 °C 52.9 °F /  11.6 °C 30in /  1016.6hPa East 2mph /  3.2km/h 2mph /  3.2km/h 52% 0in /  0.0mm 207 W/m2
16:27 71.4 °F /  21.9 °C 52.9 °F /  11.6 °C 30in /  1016.6hPa Calm   1mph /  1.6km/h 52% 0in /  0.0mm 171 W/m2
16:32 71.8 °F /  22.1 °C 52.7 °F /  11.5 °C 30in /  1016.6hPa North 0.9mph /  1.4km/h 2mph /  3.2km/h 51% 0in /  0.0mm 691 W/m2
16:37 72 °F /  22.2 °C 53.4 °F /  11.9 °C 30in /  1016.6hPa NE 0.9mph /  1.4km/h 4mph /  6.4km/h 52% 0in /  0.0mm 694 W/m2
16:42 72.1 °F /  22.3 °C 52.5 °F /  11.4 °C 30in /  1016.6hPa NNW 2mph /  3.2km/h 4mph /  6.4km/h 50% 0in /  0.0mm 679 W/m2
16:47 72.3 °F /  22.4 °C 53.8 °F /  12.1 °C 30in /  1016.6hPa SSE 0.9mph /  1.4km/h 2mph /  3.2km/h 52% 0in /  0.0mm 647 W/m2
16:52 72.9 °F /  22.7 °C 52.5 °F /  11.4 °C 30in /  1016.6hPa ESE 2mph /  3.2km/h 3mph /  4.8km/h 49% 0in /  0.0mm 615 W/m2
16:57 72.5 °F /  22.5 °C 52.3 °F /  11.3 °C 30in /  1016.6hPa SE 0.9mph /  1.4km/h 1mph /  1.6km/h 49% 0in /  0.0mm 178 W/m2
17:02 72.9 °F /  22.7 °C 54.1 °F /  12.3 °C 30in /  1016.6hPa East 0.9mph /  1.4km/h 1mph /  1.6km/h 52% 0in /  0.0mm 606 W/m2
17:07 73.2 °F /  22.9 °C 52.3 °F /  11.3 °C 30in /  1016.6hPa NNE 0.9mph /  1.4km/h 3mph /  4.8km/h 48% 0in /  0.0mm 561 W/m2
17:12 73 °F /  22.8 °C 52.7 °F /  11.5 °C 30in /  1016.6hPa ESE 2.9mph /  4.7km/h 6mph /  9.7km/h 49% 0in /  0.0mm 554 W/m2
17:17 73 °F /  22.8 °C 52.2 °F /  11.2 °C 30in /  1016.6hPa NNE 0.9mph /  1.4km/h 4mph /  6.4km/h 48% 0in /  0.0mm 522 W/m2
17:22 72.9 °F /  22.7 °C 52.5 °F /  11.4 °C 30in /  1016.6hPa SW 2mph /  3.2km/h 6mph /  9.7km/h 49% 0in /  0.0mm 534 W/m2
17:28 73 °F /  22.8 °C 52.2 °F /  11.2 °C 30in /  1016.6hPa East 0.9mph /  1.4km/h 4mph /  6.4km/h 48% 0in /  0.0mm 545 W/m2
17:33 73 °F /  22.8 °C 53.2 °F /  11.8 °C 30in /  1016.6hPa East 2mph /  3.2km/h 6mph /  9.7km/h 50% 0in /  0.0mm 543 W/m2
17:38 73.2 °F /  22.9 °C 52.3 °F /  11.3 °C 30in /  1016.6hPa ENE 2mph /  3.2km/h 5mph /  8km/h 48% 0in /  0.0mm 541 W/m2
17:43 73.2 °F /  22.9 °C 53.4 °F /  11.9 °C 30in /  1016.6hPa ESE 2.9mph /  4.7km/h 3mph /  4.8km/h 50% 0in /  0.0mm 494 W/m2
17:48 73.2 °F /  22.9 °C 52.3 °F /  11.3 °C 30in /  1016.6hPa NNW 2mph /  3.2km/h 3mph /  4.8km/h 48% 0in /  0.0mm 496 W/m2
17:53 73.2 °F /  22.9 °C 52.3 °F /  11.3 °C 30in /  1016.6hPa East 2mph /  3.2km/h 3mph /  4.8km/h 48% 0in /  0.0mm 446 W/m2
17:58 73.4 °F /  23 °C 53.1 °F /  11.7 °C 30in /  1016.6hPa ESE 0.9mph /  1.4km/h 4mph /  6.4km/h 49% 0in /  0.0mm 334 W/m2
18:03 73.6 °F /  23.1 °C 53.8 °F /  12.1 °C 30in /  1016.6hPa Calm   2mph /  3.2km/h 50% 0in /  0.0mm 424 W/m2
18:08 73.8 °F /  23.2 °C 52.3 °F /  11.3 °C 30in /  1016.6hPa SE 2.9mph /  4.7km/h 6mph /  9.7km/h 47% 0in /  0.0mm 404 W/m2
18:13 73.8 °F /  23.2 °C 52.3 °F /  11.3 °C 30in /  1016.9hPa ESE 0.9mph /  1.4km/h 3mph /  4.8km/h 47% 0in /  0.0mm 378 W/m2
18:18 73.6 °F /  23.1 °C 52.2 °F /  11.2 °C 30in /  1016.6hPa ENE 2mph /  3.2km/h 3mph /  4.8km/h 47% 0in /  0.0mm 353 W/m2
18:23 73.6 °F /  23.1 °C 52.2 °F /  11.2 °C 30in /  1016.6hPa Calm   3mph /  4.8km/h 47% 0in /  0.0mm 334 W/m2
18:28 73.2 °F /  22.9 °C 51.8 °F /  11 °C 30in /  1016.9hPa SE 2.9mph /  4.7km/h 3mph /  4.8km/h 47% 0in /  0.0mm 320 W/m2
18:33 72.9 °F /  22.7 °C 52 °F /  11.1 °C 30in /  1016.9hPa NNE 2mph /  3.2km/h 2mph /  3.2km/h 48% 0in /  0.0mm 283 W/m2
18:38 73 °F /  22.8 °C 51.6 °F /  10.9 °C 30in /  1016.9hPa Calm   1mph /  1.6km/h 47% 0in /  0.0mm 257 W/m2
18:43 73.4 °F /  23 °C 52 °F /  11.1 °C 30in /  1016.9hPa ESE 2mph /  3.2km/h 3mph /  4.8km/h 47% 0in /  0.0mm 230 W/m2
18:48 73.4 °F /  23 °C 52 °F /  11.1 °C 30in /  1016.9hPa SE 0.9mph /  1.4km/h 3mph /  4.8km/h 47% 0in /  0.0mm 230 W/m2
18:54 73 °F /  22.8 °C 51.6 °F /  10.9 °C 30in /  1016.9hPa Calm   3mph /  4.8km/h 47% 0in /  0.0mm 213 W/m2
18:59 72.9 °F /  22.7 °C 52.5 °F /  11.4 °C 30in /  1016.9hPa WNW 0.9mph /  1.4km/h 2mph /  3.2km/h 49% 0in /  0.0mm 58 W/m2
19:04 72.3 °F /  22.4 °C 53.2 °F /  11.8 °C 30in /  1016.9hPa Calm   1mph /  1.6km/h 51% 0in /  0.0mm 42 W/m2
19:09 71.8 °F /  22.1 °C 54.3 °F /  12.4 °C 30in /  1016.9hPa Calm   3mph /  4.8km/h 54% 0in /  0.0mm 77 W/m2
19:14 71.2 °F /  21.8 °C 54.3 °F /  12.4 °C 30in /  1016.9hPa Calm     55% 0in /  0.0mm 125 W/m2
19:19 70.9 °F /  21.6 °C 54.3 °F /  12.4 °C 30in /  1016.9hPa Calm     56% 0in /  0.0mm 33 W/m2
19:24 70.3 °F /  21.3 °C 54.3 °F /  12.4 °C 30in /  1016.9hPa WNW 0.9mph /  1.4km/h 1mph /  1.6km/h 57% 0in /  0.0mm 33 W/m2
19:29 70 °F /  21.1 °C 54 °F /  12.2 °C 30in /  1016.9hPa WNW 0.9mph /  1.4km/h 1mph /  1.6km/h 57% 0in /  0.0mm 28 W/m2
19:34 69.3 °F /  20.7 °C 53.8 °F /  12.1 °C 30in /  1016.9hPa WNW 0.9mph /  1.4km/h 1mph /  1.6km/h 58% 0in /  0.0mm 23 W/m2
19:39 68.7 °F /  20.4 °C 53.8 °F /  12.1 °C 30in /  1017.3hPa Calm   2mph /  3.2km/h 59% 0in /  0.0mm 19 W/m2
19:44 67.8 °F /  19.9 °C 53.4 °F /  11.9 °C 30in /  1016.9hPa WNW 0.9mph /  1.4km/h 1mph /  1.6km/h 60% 0in /  0.0mm 16 W/m2
19:49 67.3 °F /  19.6 °C 53.8 °F /  12.1 °C 30in /  1017.3hPa WNW 0.9mph /  1.4km/h 2mph /  3.2km/h 62% 0in /  0.0mm 14 W/m2
19:54 66.6 °F /  19.2 °C 53.6 °F /  12 °C 30in /  1017.3hPa Calm   1mph /  1.6km/h 63% 0in /  0.0mm 11 W/m2
19:59 65.8 °F /  18.8 °C 52.9 °F /  11.6 °C 30in /  1017.3hPa Calm   1mph /  1.6km/h 63% 0in /  0.0mm 7 W/m2
20:04 65.5 °F /  18.6 °C 53.1 °F /  11.7 °C 30in /  1017.3hPa Calm   1mph /  1.6km/h 64% 0in /  0.0mm 5 W/m2
20:09 64.9 °F /  18.3 °C 52.9 °F /  11.6 °C 30in /  1017.3hPa Calm   1mph /  1.6km/h 65% 0in /  0.0mm 0 W/m2
20:14 64.6 °F /  18.1 °C 52.5 °F /  11.4 °C 30.1in /  1017.6hPa Calm   1mph /  1.6km/h 65% 0in /  0.0mm 0 W/m2
20:19 64 °F /  17.8 °C 52.5 °F /  11.4 °C 30.1in /  1017.6hPa Calm   1mph /  1.6km/h 66% 0in /  0.0mm 0 W/m2
20:24 63.7 °F /  17.6 °C 52.5 °F /  11.4 °C 30.1in /  1017.6hPa Calm     67% 0in /  0.0mm 0 W/m2
20:29 63.1 °F /  17.3 °C 52 °F /  11.1 °C 30.1in /  1017.6hPa Calm     67% 0in /  0.0mm 0 W/m2
20:34 63 °F /  17.2 °C 52.2 °F /  11.2 °C 30.1in /  1017.6hPa Calm     68% 0in /  0.0mm 0 W/m2
20:39 62.4 °F /  16.9 °C 51.8 °F /  11 °C 30.1in /  1017.6hPa Calm     68% 0in /  0.0mm 0 W/m2
20:44 62.2 °F /  16.8 °C 51.6 °F /  10.9 °C 30.1in /  1018.0hPa Calm     68% 0in /  0.0mm 0 W/m2
20:49 61.9 °F /  16.6 °C 51.6 °F /  10.9 °C 30.1in /  1018.0hPa Calm     69% 0in /  0.0mm 0 W/m2
20:54 61.5 °F /  16.4 °C 51.3 °F /  10.7 °C 30.1in /  1018.0hPa Calm     69% 0in /  0.0mm 0 W/m2
20:59 61.2 °F /  16.2 °C 51.3 °F /  10.7 °C 30.1in /  1018.0hPa Calm     70% 0in /  0.0mm 0 W/m2
21:04 61 °F /  16.1 °C 51.4 °F /  10.8 °C 30.1in /  1018.0hPa Calm     71% 0in /  0.0mm 0 W/m2
21:09 60.6 °F /  15.9 °C 50.7 °F /  10.4 °C 30.1in /  1018.0hPa Calm     70% 0in /  0.0mm 0 W/m2
21:14 60.3 °F /  15.7 °C 51.3 °F /  10.7 °C 30.1in /  1018.0hPa Calm     72% 0in /  0.0mm 0 W/m2
21:19 60.1 °F /  15.6 °C 51.4 °F /  10.8 °C 30.1in /  1018.3hPa Calm     73% 0in /  0.0mm 0 W/m2
21:24 59.7 °F /  15.4 °C 51.1 °F /  10.6 °C 30.1in /  1018.3hPa Calm     73% 0in /  0.0mm 0 W/m2
21:29 59.5 °F /  15.3 °C 50.9 °F /  10.5 °C 30.1in /  1018.3hPa Calm     73% 0in /  0.0mm 0 W/m2
21:34 59.2 °F /  15.1 °C 50.9 °F /  10.5 °C 30.1in /  1018.3hPa Calm     74% 0in /  0.0mm 0 W/m2
21:39 59 °F /  15 °C 51.1 °F /  10.6 °C 30.1in /  1018.6hPa Calm     75% 0in /  0.0mm 0 W/m2
21:44 58.8 °F /  14.9 °C 51.3 °F /  10.7 °C 30.1in /  1018.6hPa WNW 2mph /  3.2km/h 2mph /  3.2km/h 76% 0in /  0.0mm 0 W/m2
21:49 58.8 °F /  14.9 °C 51.6 °F /  10.9 °C 30.1in /  1018.6hPa Calm     77% 0in /  0.0mm 0 W/m2
21:54 58.8 °F /  14.9 °C 51.6 °F /  10.9 °C 30.1in /  1018.6hPa WNW 2mph /  3.2km/h 2mph /  3.2km/h 77% 0in /  0.0mm 0 W/m2
21:59 58.6 °F /  14.8 °C 51.1 °F /  10.6 °C 30.1in /  1018.6hPa WNW 0.9mph /  1.4km/h 2mph /  3.2km/h 76% 0in /  0.0mm 0 W/m2
22:04 58.5 °F /  14.7 °C 51.3 °F /  10.7 °C 30.1in /  1018.6hPa Calm     77% 0in /  0.0mm 0 W/m2
22:09 58.5 °F /  14.7 °C 51.3 °F /  10.7 °C 30.1in /  1018.6hPa Calm     77% 0in /  0.0mm 0 W/m2
22:14 58.5 °F /  14.7 °C 51.3 °F /  10.7 °C 30.1in /  1018.6hPa Calm     77% 0in /  0.0mm 0 W/m2
22:19 58.5 °F /  14.7 °C 51.3 °F /  10.7 °C 30.1in /  1018.6hPa Calm     77% 0in /  0.0mm 0 W/m2
22:24 58.5 °F /  14.7 °C 51.3 °F /  10.7 °C 30.1in /  1018.6hPa Calm     77% 0in /  0.0mm 0 W/m2
22:29 58.3 °F /  14.6 °C 51.1 °F /  10.6 °C 30.1in /  1018.6hPa Calm     77% 0in /  0.0mm 0 W/m2
22:34 58.3 °F /  14.6 °C 51.1 °F /  10.6 °C 30.1in /  1018.6hPa Calm     77% 0in /  0.0mm 0 W/m2
22:39 58.1 °F /  14.5 °C 50.9 °F /  10.5 °C 30.1in /  1018.6hPa Calm     77% 0in /  0.0mm 0 W/m2
22:44 57.9 °F /  14.4 °C 50.7 °F /  10.4 °C 30.1in /  1018.6hPa Calm     77% 0in /  0.0mm 0 W/m2
22:49 57.9 °F /  14.4 °C 50.7 °F /  10.4 °C 30.1in /  1018.6hPa Calm     77% 0in /  0.0mm 0 W/m2
22:54 57.7 °F /  14.3 °C 50.9 °F /  10.5 °C 30.1in /  1018.6hPa Calm     78% 0in /  0.0mm 0 W/m2
22:59 57.6 °F /  14.2 °C 50.7 °F /  10.4 °C 30.1in /  1018.6hPa Calm     78% 0in /  0.0mm 0 W/m2
23:04 57.4 °F /  14.1 °C 50.9 °F /  10.5 °C 30.1in /  1018.6hPa Calm     79% 0in /  0.0mm 0 W/m2
23:09 57.2 °F /  14 °C 51.1 °F /  10.6 °C 30.1in /  1018.6hPa Calm     80% 0in /  0.0mm 0 W/m2
23:14 57 °F /  13.9 °C 50.9 °F /  10.5 °C 30.1in /  1018.6hPa Calm     80% 0in /  0.0mm 0 W/m2
23:19 56.8 °F /  13.8 °C 51.1 °F /  10.6 °C 30.1in /  1018.6hPa Calm     81% 0in /  0.0mm 0 W/m2
23:24 56.7 °F /  13.7 °C 50.9 °F /  10.5 °C 30.1in /  1018.6hPa Calm     81% 0in /  0.0mm 0 W/m2
23:29 56.5 °F /  13.6 °C 50.7 °F /  10.4 °C 30.1in /  1018.6hPa Calm     81% 0in /  0.0mm 0 W/m2
23:34 56.1 °F /  13.4 °C 50.7 °F /  10.4 °C 30.1in /  1018.6hPa Calm     82% 0in /  0.0mm 0 W/m2
23:39 55.9 °F /  13.3 °C 50.5 °F /  10.3 °C 30.1in /  1018.6hPa Calm     82% 0in /  0.0mm 0 W/m2
23:44 55.9 °F /  13.3 °C 50.5 °F /  10.3 °C 30.1in /  1018.6hPa Calm     82% 0in /  0.0mm 0 W/m2
23:49 55.8 °F /  13.2 °C 50.4 °F /  10.2 °C 30.1in /  1018.6hPa Calm     82% 0in /  0.0mm 0 W/m2
23:54 55.6 °F /  13.1 °C 50.5 °F /  10.3 °C 30.1in /  1018.6hPa Calm     83% 0in /  0.0mm 0 W/m2
23:59 55.4 °F /  13 °C 50.4 °F /  10.2 °C 30.1in /  1018.6hPa Calm     83% 0in /  0.0mm 0 W/m2
Juneau County Weather
Compliments of Weather Underground - 4 mb